Saguaro National Park, AZ

1:57 AM MST on October 21, 2014 (GMT -0700)
Fort Huachuca | Change Station
CLOSE
Current Station
Airport
Location: Fort Huachuca,
Elevation: 4767 ft
Nearby Weather Stations

Elev 4767 ft 31.61 °N, 110.43 °W | Updated 1 minute ago

Clear
Clear
53 °F
Feels Like 53 °F
N
5
Wind Variable Wind from NE

Today
High -- | Low -- °F
--% Chance of Precip.
Yesterday
High -- | Low -- °F
Precip. -- in
6:32 AM 5:44 PM
Waning Crescent, 6% visible
Pressure 29.84 in
Visibility 10.0 miles
Clouds Clear
Dew Point 43 °F
Humidity 69%
Rainfall 0.00 in
Snow Depth Not available.
UV 0 out of 12
Pollen 5.20 out of 12
Air Quality Not available.
Flu Activity No Activity
METAR KALK 210856Z AUTO 05004KT 10SM CLR 12/06 A3006 RMK AO2 SLP104 T01170061 58004 TSNO

More Conditions Fewer Conditions

Pressure 29.84 in
Visibility 10.0 miles
Clouds Clear
Dew Point 43 °F
Humidity 69%
Rainfall 0.00 in
Snow Depth Not available.
UV 0 out of 12
Pollen 5.20 out of 12
Air Quality Not available.
Flu Activity No Activity
METAR KALK 210856Z AUTO 05004KT 10SM CLR 12/06 A3006 RMK AO2 SLP104 T01170061 58004 TSNO

More Conditions Fewer Conditions

10-Day Weather Forecast

Almanac

Astronomy

Oct. 21, 2014 Rise Set
Actual Time 6:32 AM MST 5:44 PM MST
Civil Twilight 6:07 AM MST 6:09 PM MST
Nautical Twilight 5:38 AM MST 6:37 PM MST
Astronomical Twilight 5:10 AM MST 7:06 PM MST
Moon 4:27 AM MST 4:34 PM MST
Length of Visible Light 12h 02m
Length of Day
11h 12m
Tomorrow will be 1m 50s shorter.
Waning Crescent, 6% of the Moon is Illuminated
Today
Waning Crescent
Oct 23
New
Oct 30
First Quarter
Nov 6
Full
Nov 14
Last Quarter

Today's Extremes

State Highs State Lows

Community

WunderPhotos

Upload Photos

1,763,619 photos uploaded!

Nearby

Snow Depth

Station Depth Elevation
Workman Creek 0 in 6900 ft
Wildcat 0 in 7850 ft
Hannagan Meadows 1 in 9020 ft
Beaver Head 1 in 7990 ft
Maverick Fork 1 in 9200 ft

Earthquake Activity

City Distance Mag. Time & Date
No recent earthquake activity has been reported nearby.
Minimum magnitude displayed is 2.5.

Coastal Water Temperatures

Place Temperature
No Stations Reporting

Nearby Weather Stations